sensor_id;sensor_type;location;lat;lon;timestamp;temperature;humidity
55771;DHT22;41687;-33.234;-60.334;2023-04-16T00:01:53;17.10;70.90
55771;DHT22;41687;-33.234;-60.334;2023-04-16T00:04:22;17.10;71.20
55771;DHT22;41687;-33.234;-60.334;2023-04-16T00:06:49;17.10;71.60
55771;DHT22;41687;-33.234;-60.334;2023-04-16T00:09:17;17.10;71.30
55771;DHT22;41687;-33.234;-60.334;2023-04-16T00:11:45;17.10;71.50
55771;DHT22;41687;-33.234;-60.334;2023-04-16T00:14:13;17.00;71.50
55771;DHT22;41687;-33.234;-60.334;2023-04-16T00:16:40;17.00;71.40
55771;DHT22;41687;-33.234;-60.334;2023-04-16T00:19:08;17.00;71.20
55771;DHT22;41687;-33.234;-60.334;2023-04-16T00:21:36;17.00;71.10
55771;DHT22;41687;-33.234;-60.334;2023-04-16T00:24:04;17.00;71.30
55771;DHT22;41687;-33.234;-60.334;2023-04-16T00:26:31;17.00;71.90
55771;DHT22;41687;-33.234;-60.334;2023-04-16T00:29:00;17.00;72.30
55771;DHT22;41687;-33.234;-60.334;2023-04-16T00:31:30;17.00;72.40
55771;DHT22;41687;-33.234;-60.334;2023-04-16T00:33:58;16.90;73.00
55771;DHT22;41687;-33.234;-60.334;2023-04-16T00:36:27;17.00;73.60
55771;DHT22;41687;-33.234;-60.334;2023-04-16T00:38:55;17.00;73.30
55771;DHT22;41687;-33.234;-60.334;2023-04-16T00:41:23;16.90;74.10
55771;DHT22;41687;-33.234;-60.334;2023-04-16T00:43:52;17.00;73.90
55771;DHT22;41687;-33.234;-60.334;2023-04-16T00:46:22;16.90;73.90
55771;DHT22;41687;-33.234;-60.334;2023-04-16T00:48:50;16.90;74.20
55771;DHT22;41687;-33.234;-60.334;2023-04-16T00:51:19;16.90;74.60
55771;DHT22;41687;-33.234;-60.334;2023-04-16T00:53:47;16.90;74.80
55771;DHT22;41687;-33.234;-60.334;2023-04-16T00:56:15;16.90;74.80
55771;DHT22;41687;-33.234;-60.334;2023-04-16T00:58:43;16.80;75.10
55771;DHT22;41687;-33.234;-60.334;2023-04-16T01:01:12;16.90;74.70
55771;DHT22;41687;-33.234;-60.334;2023-04-16T01:03:46;16.80;75.80
55771;DHT22;41687;-33.234;-60.334;2023-04-16T01:06:16;16.70;75.90
55771;DHT22;41687;-33.234;-60.334;2023-04-16T01:08:45;16.70;76.00
55771;DHT22;41687;-33.234;-60.334;2023-04-16T01:11:13;16.70;75.80
55771;DHT22;41687;-33.234;-60.334;2023-04-16T01:13:42;16.70;75.80
55771;DHT22;41687;-33.234;-60.334;2023-04-16T01:16:11;16.70;75.50
55771;DHT22;41687;-33.234;-60.334;2023-04-16T01:18:39;16.70;75.70
55771;DHT22;41687;-33.234;-60.334;2023-04-16T01:21:07;16.60;76.00
55771;DHT22;41687;-33.234;-60.334;2023-04-16T01:23:34;16.60;76.40
55771;DHT22;41687;-33.234;-60.334;2023-04-16T01:26:02;16.60;76.20
55771;DHT22;41687;-33.234;-60.334;2023-04-16T01:28:31;16.60;76.20
55771;DHT22;41687;-33.234;-60.334;2023-04-16T01:30:59;16.60;75.90
55771;DHT22;41687;-33.234;-60.334;2023-04-16T01:33:45;16.60;75.50
55771;DHT22;41687;-33.234;-60.334;2023-04-16T01:36:13;16.60;75.40
55771;DHT22;41687;-33.234;-60.334;2023-04-16T01:38:41;16.60;75.20
55771;DHT22;41687;-33.234;-60.334;2023-04-16T01:41:08;16.60;75.00
55771;DHT22;41687;-33.234;-60.334;2023-04-16T01:43:36;16.60;74.80
55771;DHT22;41687;-33.234;-60.334;2023-04-16T01:46:17;16.60;74.70
55771;DHT22;41687;-33.234;-60.334;2023-04-16T01:48:47;16.60;74.80
55771;DHT22;41687;-33.234;-60.334;2023-04-16T01:51:15;16.60;74.50
55771;DHT22;41687;-33.234;-60.334;2023-04-16T01:53:44;16.50;74.40
55771;DHT22;41687;-33.234;-60.334;2023-04-16T01:56:12;16.50;74.10
55771;DHT22;41687;-33.234;-60.334;2023-04-16T01:58:40;16.50;73.80
55771;DHT22;41687;-33.234;-60.334;2023-04-16T02:01:09;16.50;73.80
55771;DHT22;41687;-33.234;-60.334;2023-04-16T02:03:38;16.60;72.90
55771;DHT22;41687;-33.234;-60.334;2023-04-16T02:06:05;16.60;72.90
55771;DHT22;41687;-33.234;-60.334;2023-04-16T02:08:35;16.60;73.50
55771;DHT22;41687;-33.234;-60.334;2023-04-16T02:11:03;16.50;74.10
55771;DHT22;41687;-33.234;-60.334;2023-04-16T02:13:31;16.50;74.90
55771;DHT22;41687;-33.234;-60.334;2023-04-16T02:15:58;16.50;75.70
55771;DHT22;41687;-33.234;-60.334;2023-04-16T02:18:47;16.50;76.20
55771;DHT22;41687;-33.234;-60.334;2023-04-16T02:21:20;16.40;76.80
55771;DHT22;41687;-33.234;-60.334;2023-04-16T02:23:48;16.40;77.10
55771;DHT22;41687;-33.234;-60.334;2023-04-16T02:26:22;16.50;77.20
55771;DHT22;41687;-33.234;-60.334;2023-04-16T02:28:51;16.40;78.40
55771;DHT22;41687;-33.234;-60.334;2023-04-16T02:31:25;16.30;79.00
55771;DHT22;41687;-33.234;-60.334;2023-04-16T02:33:55;16.30;78.80
55771;DHT22;41687;-33.234;-60.334;2023-04-16T02:36:23;16.30;78.80
55771;DHT22;41687;-33.234;-60.334;2023-04-16T02:38:51;16.20;79.40
55771;DHT22;41687;-33.234;-60.334;2023-04-16T02:41:18;16.20;80.00
55771;DHT22;41687;-33.234;-60.334;2023-04-16T02:43:46;16.20;79.80
55771;DHT22;41687;-33.234;-60.334;2023-04-16T02:46:14;16.20;81.00
55771;DHT22;41687;-33.234;-60.334;2023-04-16T02:48:42;16.10;80.30
55771;DHT22;41687;-33.234;-60.334;2023-04-16T02:51:09;16.00;80.80
55771;DHT22;41687;-33.234;-60.334;2023-04-16T02:53:37;16.00;81.30
55771;DHT22;41687;-33.234;-60.334;2023-04-16T02:56:04;16.00;81.20
55771;DHT22;41687;-33.234;-60.334;2023-04-16T02:58:32;16.00;81.20
55771;DHT22;41687;-33.234;-60.334;2023-04-16T03:01:00;16.00;82.00
55771;DHT22;41687;-33.234;-60.334;2023-04-16T03:03:28;15.90;82.20
55771;DHT22;41687;-33.234;-60.334;2023-04-16T03:05:55;16.00;83.00
55771;DHT22;41687;-33.234;-60.334;2023-04-16T03:08:23;16.00;82.90
55771;DHT22;41687;-33.234;-60.334;2023-04-16T03:10:51;16.00;83.10
55771;DHT22;41687;-33.234;-60.334;2023-04-16T03:13:19;16.00;83.20
55771;DHT22;41687;-33.234;-60.334;2023-04-16T03:15:49;16.00;82.90
55771;DHT22;41687;-33.234;-60.334;2023-04-16T03:18:17;16.00;83.20
55771;DHT22;41687;-33.234;-60.334;2023-04-16T03:20:45;15.90;83.40
55771;DHT22;41687;-33.234;-60.334;2023-04-16T03:23:17;15.90;83.60
55771;DHT22;41687;-33.234;-60.334;2023-04-16T03:25:44;15.90;84.00
55771;DHT22;41687;-33.234;-60.334;2023-04-16T03:28:17;15.90;84.20
55771;DHT22;41687;-33.234;-60.334;2023-04-16T03:30:54;15.90;83.90
55771;DHT22;41687;-33.234;-60.334;2023-04-16T03:33:23;15.90;84.80
55771;DHT22;41687;-33.234;-60.334;2023-04-16T03:35:55;15.90;84.40
55771;DHT22;41687;-33.234;-60.334;2023-04-16T03:38:25;15.70;84.50
55771;DHT22;41687;-33.234;-60.334;2023-04-16T03:40:56;15.80;83.90
55771;DHT22;41687;-33.234;-60.334;2023-04-16T03:43:25;15.80;83.90
55771;DHT22;41687;-33.234;-60.334;2023-04-16T03:45:53;15.70;83.90
55771;DHT22;41687;-33.234;-60.334;2023-04-16T03:48:23;15.70;83.70
55771;DHT22;41687;-33.234;-60.334;2023-04-16T03:50:52;15.70;83.70
55771;DHT22;41687;-33.234;-60.334;2023-04-16T03:53:20;15.70;84.10
55771;DHT22;41687;-33.234;-60.334;2023-04-16T03:55:52;15.80;83.60
55771;DHT22;41687;-33.234;-60.334;2023-04-16T03:58:21;15.70;84.00
55771;DHT22;41687;-33.234;-60.334;2023-04-16T04:00:48;15.70;84.20
55771;DHT22;41687;-33.234;-60.334;2023-04-16T04:03:17;15.70;84.90
55771;DHT22;41687;-33.234;-60.334;2023-04-16T04:05:47;15.60;85.40
55771;DHT22;41687;-33.234;-60.334;2023-04-16T04:08:22;15.70;85.10
55771;DHT22;41687;-33.234;-60.334;2023-04-16T04:10:51;15.70;85.30
55771;DHT22;41687;-33.234;-60.334;2023-04-16T04:13:20;15.70;84.80
55771;DHT22;41687;-33.234;-60.334;2023-04-16T04:15:50;15.60;85.10
55771;DHT22;41687;-33.234;-60.334;2023-04-16T04:18:18;15.60;85.10
55771;DHT22;41687;-33.234;-60.334;2023-04-16T04:20:45;15.70;85.20
55771;DHT22;41687;-33.234;-60.334;2023-04-16T04:23:15;15.60;85.10
55771;DHT22;41687;-33.234;-60.334;2023-04-16T04:25:44;15.70;85.10
55771;DHT22;41687;-33.234;-60.334;2023-04-16T04:28:12;15.70;84.80
55771;DHT22;41687;-33.234;-60.334;2023-04-16T04:30:41;15.60;84.30
55771;DHT22;41687;-33.234;-60.334;2023-04-16T04:33:08;15.60;83.90
55771;DHT22;41687;-33.234;-60.334;2023-04-16T04:35:38;15.70;83.90
55771;DHT22;41687;-33.234;-60.334;2023-04-16T04:38:05;15.60;83.70
55771;DHT22;41687;-33.234;-60.334;2023-04-16T04:40:33;15.60;83.70
55771;DHT22;41687;-33.234;-60.334;2023-04-16T04:43:00;15.70;83.70
55771;DHT22;41687;-33.234;-60.334;2023-04-16T04:45:29;15.60;83.30
55771;DHT22;41687;-33.234;-60.334;2023-04-16T04:47:56;15.60;83.10
55771;DHT22;41687;-33.234;-60.334;2023-04-16T04:50:25;15.50;83.20
55771;DHT22;41687;-33.234;-60.334;2023-04-16T04:52:52;15.50;83.10
55771;DHT22;41687;-33.234;-60.334;2023-04-16T04:55:21;15.50;83.50
55771;DHT22;41687;-33.234;-60.334;2023-04-16T04:57:50;15.50;83.30
55771;DHT22;41687;-33.234;-60.334;2023-04-16T05:00:18;15.50;83.70
55771;DHT22;41687;-33.234;-60.334;2023-04-16T05:02:53;15.50;83.50
55771;DHT22;41687;-33.234;-60.334;2023-04-16T05:05:21;15.50;83.80
55771;DHT22;41687;-33.234;-60.334;2023-04-16T05:07:48;15.50;83.90
55771;DHT22;41687;-33.234;-60.334;2023-04-16T05:10:16;15.50;83.90
55771;DHT22;41687;-33.234;-60.334;2023-04-16T05:12:44;15.40;84.10
55771;DHT22;41687;-33.234;-60.334;2023-04-16T05:15:12;15.40;84.30
55771;DHT22;41687;-33.234;-60.334;2023-04-16T05:17:40;15.40;84.30
55771;DHT22;41687;-33.234;-60.334;2023-04-16T05:20:09;15.40;83.50
55771;DHT22;41687;-33.234;-60.334;2023-04-16T05:22:38;15.50;83.70
55771;DHT22;41687;-33.234;-60.334;2023-04-16T05:25:05;15.50;83.80
55771;DHT22;41687;-33.234;-60.334;2023-04-16T05:27:33;15.50;83.60
55771;DHT22;41687;-33.234;-60.334;2023-04-16T05:30:00;15.50;83.70
55771;DHT22;41687;-33.234;-60.334;2023-04-16T05:32:28;15.50;83.60
55771;DHT22;41687;-33.234;-60.334;2023-04-16T05:34:56;15.50;84.20
55771;DHT22;41687;-33.234;-60.334;2023-04-16T05:37:23;15.50;84.10
55771;DHT22;41687;-33.234;-60.334;2023-04-16T05:39:51;15.50;84.50
55771;DHT22;41687;-33.234;-60.334;2023-04-16T05:42:19;15.50;84.20
55771;DHT22;41687;-33.234;-60.334;2023-04-16T05:44:46;15.40;84.40
55771;DHT22;41687;-33.234;-60.334;2023-04-16T05:47:14;15.40;84.40
55771;DHT22;41687;-33.234;-60.334;2023-04-16T05:49:41;15.40;84.50
55771;DHT22;41687;-33.234;-60.334;2023-04-16T05:52:09;15.40;84.50
55771;DHT22;41687;-33.234;-60.334;2023-04-16T05:54:37;15.40;84.70
55771;DHT22;41687;-33.234;-60.334;2023-04-16T05:57:05;15.40;84.70
55771;DHT22;41687;-33.234;-60.334;2023-04-16T05:59:32;15.30;84.50
55771;DHT22;41687;-33.234;-60.334;2023-04-16T06:02:00;15.30;84.60
55771;DHT22;41687;-33.234;-60.334;2023-04-16T06:04:28;15.20;84.70
55771;DHT22;41687;-33.234;-60.334;2023-04-16T06:06:56;15.30;84.70
55771;DHT22;41687;-33.234;-60.334;2023-04-16T06:09:24;15.30;84.30
55771;DHT22;41687;-33.234;-60.334;2023-04-16T06:11:52;15.30;84.10
55771;DHT22;41687;-33.234;-60.334;2023-04-16T06:14:19;15.30;84.10
55771;DHT22;41687;-33.234;-60.334;2023-04-16T06:16:48;15.30;83.50
55771;DHT22;41687;-33.234;-60.334;2023-04-16T06:19:15;15.30;83.40
55771;DHT22;41687;-33.234;-60.334;2023-04-16T06:21:43;15.40;82.90
55771;DHT22;41687;-33.234;-60.334;2023-04-16T06:24:10;15.40;83.40
55771;DHT22;41687;-33.234;-60.334;2023-04-16T06:26:39;15.30;83.00
55771;DHT22;41687;-33.234;-60.334;2023-04-16T06:29:06;15.40;83.20
55771;DHT22;41687;-33.234;-60.334;2023-04-16T06:31:34;15.30;83.20
55771;DHT22;41687;-33.234;-60.334;2023-04-16T06:34:02;15.30;83.30
55771;DHT22;41687;-33.234;-60.334;2023-04-16T06:36:30;15.40;83.50
55771;DHT22;41687;-33.234;-60.334;2023-04-16T06:38:58;15.40;83.50
55771;DHT22;41687;-33.234;-60.334;2023-04-16T06:41:26;15.40;83.60
55771;DHT22;41687;-33.234;-60.334;2023-04-16T06:43:54;15.40;83.80
55771;DHT22;41687;-33.234;-60.334;2023-04-16T06:46:22;15.30;83.80
55771;DHT22;41687;-33.234;-60.334;2023-04-16T06:48:49;15.30;84.00
55771;DHT22;41687;-33.234;-60.334;2023-04-16T06:51:17;15.30;84.10
55771;DHT22;41687;-33.234;-60.334;2023-04-16T06:53:45;15.30;84.30
55771;DHT22;41687;-33.234;-60.334;2023-04-16T06:56:12;15.30;84.60
55771;DHT22;41687;-33.234;-60.334;2023-04-16T06:58:40;15.40;84.30
55771;DHT22;41687;-33.234;-60.334;2023-04-16T07:01:08;15.30;84.70
55771;DHT22;41687;-33.234;-60.334;2023-04-16T07:03:36;15.40;84.50
55771;DHT22;41687;-33.234;-60.334;2023-04-16T07:06:03;15.30;84.70
55771;DHT22;41687;-33.234;-60.334;2023-04-16T07:08:31;15.20;85.20
55771;DHT22;41687;-33.234;-60.334;2023-04-16T07:10:59;15.20;86.00
55771;DHT22;41687;-33.234;-60.334;2023-04-16T07:13:26;15.20;85.40
55771;DHT22;41687;-33.234;-60.334;2023-04-16T07:15:54;15.20;85.50
55771;DHT22;41687;-33.234;-60.334;2023-04-16T07:18:21;15.20;85.10
55771;DHT22;41687;-33.234;-60.334;2023-04-16T07:20:49;15.20;84.80
55771;DHT22;41687;-33.234;-60.334;2023-04-16T07:23:17;15.20;84.70
55771;DHT22;41687;-33.234;-60.334;2023-04-16T07:25:44;15.20;84.20
55771;DHT22;41687;-33.234;-60.334;2023-04-16T07:28:12;15.20;83.70
55771;DHT22;41687;-33.234;-60.334;2023-04-16T07:30:43;15.10;83.50
55771;DHT22;41687;-33.234;-60.334;2023-04-16T07:33:11;15.20;83.00
55771;DHT22;41687;-33.234;-60.334;2023-04-16T07:35:39;15.20;82.70
55771;DHT22;41687;-33.234;-60.334;2023-04-16T07:38:06;15.20;82.90
55771;DHT22;41687;-33.234;-60.334;2023-04-16T07:40:35;15.20;83.60
55771;DHT22;41687;-33.234;-60.334;2023-04-16T07:43:02;15.10;84.40
55771;DHT22;41687;-33.234;-60.334;2023-04-16T07:45:30;15.00;85.90
55771;DHT22;41687;-33.234;-60.334;2023-04-16T07:47:58;15.00;86.10
55771;DHT22;41687;-33.234;-60.334;2023-04-16T07:50:26;14.90;86.90
55771;DHT22;41687;-33.234;-60.334;2023-04-16T07:52:53;14.80;87.20
55771;DHT22;41687;-33.234;-60.334;2023-04-16T07:55:21;14.80;87.80
55771;DHT22;41687;-33.234;-60.334;2023-04-16T07:57:49;14.70;88.70
55771;DHT22;41687;-33.234;-60.334;2023-04-16T08:00:17;14.70;88.30
55771;DHT22;41687;-33.234;-60.334;2023-04-16T08:02:44;14.70;87.80
55771;DHT22;41687;-33.234;-60.334;2023-04-16T08:05:12;14.60;88.00
55771;DHT22;41687;-33.234;-60.334;2023-04-16T08:07:39;14.60;88.30
55771;DHT22;41687;-33.234;-60.334;2023-04-16T08:10:08;14.60;88.40
55771;DHT22;41687;-33.234;-60.334;2023-04-16T08:12:35;14.60;89.10
55771;DHT22;41687;-33.234;-60.334;2023-04-16T08:15:04;14.60;89.00
55771;DHT22;41687;-33.234;-60.334;2023-04-16T08:17:31;14.50;88.90
55771;DHT22;41687;-33.234;-60.334;2023-04-16T08:20:00;14.50;88.30
55771;DHT22;41687;-33.234;-60.334;2023-04-16T08:22:27;14.60;88.20
55771;DHT22;41687;-33.234;-60.334;2023-04-16T08:24:55;14.60;88.30
55771;DHT22;41687;-33.234;-60.334;2023-04-16T08:27:22;14.60;88.20
55771;DHT22;41687;-33.234;-60.334;2023-04-16T08:29:50;14.60;88.20
55771;DHT22;41687;-33.234;-60.334;2023-04-16T08:32:18;14.60;88.10
55771;DHT22;41687;-33.234;-60.334;2023-04-16T08:34:46;14.60;87.80
55771;DHT22;41687;-33.234;-60.334;2023-04-16T08:37:14;14.60;88.00
55771;DHT22;41687;-33.234;-60.334;2023-04-16T08:39:42;14.60;87.70
55771;DHT22;41687;-33.234;-60.334;2023-04-16T08:42:23;14.60;87.80
55771;DHT22;41687;-33.234;-60.334;2023-04-16T08:45:07;14.70;87.40
55771;DHT22;41687;-33.234;-60.334;2023-04-16T08:47:35;14.70;87.40
55771;DHT22;41687;-33.234;-60.334;2023-04-16T08:50:04;14.70;87.80
55771;DHT22;41687;-33.234;-60.334;2023-04-16T08:52:33;14.70;88.00
55771;DHT22;41687;-33.234;-60.334;2023-04-16T08:55:12;14.60;88.10
55771;DHT22;41687;-33.234;-60.334;2023-04-16T08:57:57;14.60;88.80
55771;DHT22;41687;-33.234;-60.334;2023-04-16T09:00:27;14.60;88.20
55771;DHT22;41687;-33.234;-60.334;2023-04-16T09:02:54;14.60;87.50
55771;DHT22;41687;-33.234;-60.334;2023-04-16T09:05:23;14.70;87.00
55771;DHT22;41687;-33.234;-60.334;2023-04-16T09:07:52;14.70;86.60
55771;DHT22;41687;-33.234;-60.334;2023-04-16T09:10:25;14.70;86.30
55771;DHT22;41687;-33.234;-60.334;2023-04-16T09:12:55;14.70;86.30
55771;DHT22;41687;-33.234;-60.334;2023-04-16T09:15:24;14.70;86.00
55771;DHT22;41687;-33.234;-60.334;2023-04-16T09:17:52;14.70;85.70
55771;DHT22;41687;-33.234;-60.334;2023-04-16T09:20:20;14.70;85.70
55771;DHT22;41687;-33.234;-60.334;2023-04-16T09:22:48;14.70;85.40
55771;DHT22;41687;-33.234;-60.334;2023-04-16T09:25:16;14.70;85.50
55771;DHT22;41687;-33.234;-60.334;2023-04-16T09:27:48;14.70;85.20
55771;DHT22;41687;-33.234;-60.334;2023-04-16T09:32:48;14.70;84.90
55771;DHT22;41687;-33.234;-60.334;2023-04-16T09:35:18;14.80;84.90
55771;DHT22;41687;-33.234;-60.334;2023-04-16T09:37:56;14.80;85.00
55771;DHT22;41687;-33.234;-60.334;2023-04-16T09:40:25;14.90;85.60
55771;DHT22;41687;-33.234;-60.334;2023-04-16T09:42:56;14.80;84.90
55771;DHT22;41687;-33.234;-60.334;2023-04-16T09:45:30;14.80;85.00
55771;DHT22;41687;-33.234;-60.334;2023-04-16T09:48:03;14.80;85.10
55771;DHT22;41687;-33.234;-60.334;2023-04-16T09:50:32;14.80;85.60
55771;DHT22;41687;-33.234;-60.334;2023-04-16T09:53:01;14.80;86.50
55771;DHT22;41687;-33.234;-60.334;2023-04-16T09:55:29;14.80;86.50
55771;DHT22;41687;-33.234;-60.334;2023-04-16T09:58:00;14.70;86.50
55771;DHT22;41687;-33.234;-60.334;2023-04-16T10:00:28;14.70;86.70
55771;DHT22;41687;-33.234;-60.334;2023-04-16T10:03:06;14.70;86.70
55771;DHT22;41687;-33.234;-60.334;2023-04-16T10:05:34;14.70;87.10
55771;DHT22;41687;-33.234;-60.334;2023-04-16T10:08:02;14.60;87.10
55771;DHT22;41687;-33.234;-60.334;2023-04-16T10:10:37;14.60;86.50
55771;DHT22;41687;-33.234;-60.334;2023-04-16T10:13:05;14.70;86.00
55771;DHT22;41687;-33.234;-60.334;2023-04-16T10:15:33;14.70;86.00
55771;DHT22;41687;-33.234;-60.334;2023-04-16T10:18:01;14.70;85.70
55771;DHT22;41687;-33.234;-60.334;2023-04-16T10:20:30;14.60;86.00
55771;DHT22;41687;-33.234;-60.334;2023-04-16T10:22:58;14.70;85.70
55771;DHT22;41687;-33.234;-60.334;2023-04-16T10:25:27;14.70;86.00
55771;DHT22;41687;-33.234;-60.334;2023-04-16T10:27:56;14.70;86.40
55771;DHT22;41687;-33.234;-60.334;2023-04-16T10:30:23;14.60;87.20
55771;DHT22;41687;-33.234;-60.334;2023-04-16T10:32:52;14.60;87.80
55771;DHT22;41687;-33.234;-60.334;2023-04-16T10:35:20;14.50;88.20
55771;DHT22;41687;-33.234;-60.334;2023-04-16T10:37:48;14.50;88.60
55771;DHT22;41687;-33.234;-60.334;2023-04-16T10:40:26;14.40;88.80
55771;DHT22;41687;-33.234;-60.334;2023-04-16T10:42:57;14.50;89.00
55771;DHT22;41687;-33.234;-60.334;2023-04-16T10:45:46;14.40;89.10
55771;DHT22;41687;-33.234;-60.334;2023-04-16T10:48:17;14.50;89.30
55771;DHT22;41687;-33.234;-60.334;2023-04-16T10:50:56;14.50;88.80
55771;DHT22;41687;-33.234;-60.334;2023-04-16T10:53:27;14.50;89.10
55771;DHT22;41687;-33.234;-60.334;2023-04-16T10:56:10;14.50;88.70
55771;DHT22;41687;-33.234;-60.334;2023-04-16T10:58:38;14.50;89.10
55771;DHT22;41687;-33.234;-60.334;2023-04-16T11:01:15;14.40;89.20
55771;DHT22;41687;-33.234;-60.334;2023-04-16T11:03:47;14.50;89.30
55771;DHT22;41687;-33.234;-60.334;2023-04-16T11:06:23;14.40;89.20
55771;DHT22;41687;-33.234;-60.334;2023-04-16T11:08:53;14.50;89.00
55771;DHT22;41687;-33.234;-60.334;2023-04-16T11:11:21;14.50;89.20
55771;DHT22;41687;-33.234;-60.334;2023-04-16T11:13:49;14.50;89.30
55771;DHT22;41687;-33.234;-60.334;2023-04-16T11:16:21;14.40;89.10
55771;DHT22;41687;-33.234;-60.334;2023-04-16T11:18:50;14.50;89.30
55771;DHT22;41687;-33.234;-60.334;2023-04-16T11:21:19;14.50;89.10
55771;DHT22;41687;-33.234;-60.334;2023-04-16T11:23:51;14.60;89.00
55771;DHT22;41687;-33.234;-60.334;2023-04-16T11:26:29;14.60;89.10
55771;DHT22;41687;-33.234;-60.334;2023-04-16T11:28:57;14.60;89.50
55771;DHT22;41687;-33.234;-60.334;2023-04-16T11:31:26;14.60;89.40
55771;DHT22;41687;-33.234;-60.334;2023-04-16T11:33:55;14.70;88.90
55771;DHT22;41687;-33.234;-60.334;2023-04-16T11:36:23;14.70;89.00
55771;DHT22;41687;-33.234;-60.334;2023-04-16T11:39:00;14.70;88.90
55771;DHT22;41687;-33.234;-60.334;2023-04-16T11:41:30;14.70;89.10
55771;DHT22;41687;-33.234;-60.334;2023-04-16T11:43:57;14.80;88.80
55771;DHT22;41687;-33.234;-60.334;2023-04-16T11:46:37;14.90;88.30
55771;DHT22;41687;-33.234;-60.334;2023-04-16T11:49:06;15.00;88.80
55771;DHT22;41687;-33.234;-60.334;2023-04-16T11:51:42;15.00;88.00
55771;DHT22;41687;-33.234;-60.334;2023-04-16T11:54:21;15.10;87.70
55771;DHT22;41687;-33.234;-60.334;2023-04-16T11:56:51;15.30;87.60
55771;DHT22;41687;-33.234;-60.334;2023-04-16T11:59:20;15.30;87.40
55771;DHT22;41687;-33.234;-60.334;2023-04-16T12:01:53;15.40;86.50
55771;DHT22;41687;-33.234;-60.334;2023-04-16T12:04:25;15.40;86.30
55771;DHT22;41687;-33.234;-60.334;2023-04-16T12:07:09;15.40;86.30
55771;DHT22;41687;-33.234;-60.334;2023-04-16T12:09:41;15.40;86.30
55771;DHT22;41687;-33.234;-60.334;2023-04-16T12:12:30;15.50;86.20
55771;DHT22;41687;-33.234;-60.334;2023-04-16T12:14:58;15.50;86.70
55771;DHT22;41687;-33.234;-60.334;2023-04-16T12:17:31;15.40;86.70
55771;DHT22;41687;-33.234;-60.334;2023-04-16T12:20:03;15.40;86.60
55771;DHT22;41687;-33.234;-60.334;2023-04-16T12:22:36;15.30;87.00
55771;DHT22;41687;-33.234;-60.334;2023-04-16T12:25:12;15.40;87.10
55771;DHT22;41687;-33.234;-60.334;2023-04-16T12:27:51;15.40;86.90
55771;DHT22;41687;-33.234;-60.334;2023-04-16T12:30:22;15.40;86.80
55771;DHT22;41687;-33.234;-60.334;2023-04-16T12:32:50;15.40;86.60
55771;DHT22;41687;-33.234;-60.334;2023-04-16T12:35:33;15.40;86.60
55771;DHT22;41687;-33.234;-60.334;2023-04-16T12:38:01;15.50;86.90
55771;DHT22;41687;-33.234;-60.334;2023-04-16T12:40:29;15.60;86.90
55771;DHT22;41687;-33.234;-60.334;2023-04-16T12:42:57;15.60;86.50
55771;DHT22;41687;-33.234;-60.334;2023-04-16T12:45:25;15.60;86.40
55771;DHT22;41687;-33.234;-60.334;2023-04-16T12:47:53;15.60;86.30
55771;DHT22;41687;-33.234;-60.334;2023-04-16T12:50:21;15.50;86.40
55771;DHT22;41687;-33.234;-60.334;2023-04-16T12:52:49;15.60;86.50
55771;DHT22;41687;-33.234;-60.334;2023-04-16T12:55:17;15.60;86.30
55771;DHT22;41687;-33.234;-60.334;2023-04-16T12:57:45;15.60;86.50
55771;DHT22;41687;-33.234;-60.334;2023-04-16T13:00:14;15.50;86.40
55771;DHT22;41687;-33.234;-60.334;2023-04-16T13:02:42;15.60;85.70
55771;DHT22;41687;-33.234;-60.334;2023-04-16T13:05:10;15.50;86.30
55771;DHT22;41687;-33.234;-60.334;2023-04-16T13:07:39;15.50;85.80
55771;DHT22;41687;-33.234;-60.334;2023-04-16T13:10:07;15.60;86.10
55771;DHT22;41687;-33.234;-60.334;2023-04-16T13:12:35;15.60;85.90
55771;DHT22;41687;-33.234;-60.334;2023-04-16T13:15:03;15.80;85.90
55771;DHT22;41687;-33.234;-60.334;2023-04-16T13:17:31;15.90;86.70
55771;DHT22;41687;-33.234;-60.334;2023-04-16T13:19:59;15.90;87.80
55771;DHT22;41687;-33.234;-60.334;2023-04-16T13:22:26;15.90;88.00
55771;DHT22;41687;-33.234;-60.334;2023-04-16T13:24:54;15.90;87.70
55771;DHT22;41687;-33.234;-60.334;2023-04-16T13:27:23;15.80;88.10
55771;DHT22;41687;-33.234;-60.334;2023-04-16T13:29:50;15.70;88.50
55771;DHT22;41687;-33.234;-60.334;2023-04-16T13:32:17;15.70;88.40
55771;DHT22;41687;-33.234;-60.334;2023-04-16T13:34:45;15.70;88.50
55771;DHT22;41687;-33.234;-60.334;2023-04-16T13:37:13;15.70;88.10
55771;DHT22;41687;-33.234;-60.334;2023-04-16T13:39:41;15.60;88.40
55771;DHT22;41687;-33.234;-60.334;2023-04-16T13:42:08;15.70;88.20
55771;DHT22;41687;-33.234;-60.334;2023-04-16T13:44:36;15.70;87.90
55771;DHT22;41687;-33.234;-60.334;2023-04-16T13:47:04;15.80;87.60
55771;DHT22;41687;-33.234;-60.334;2023-04-16T13:49:32;15.80;88.00
55771;DHT22;41687;-33.234;-60.334;2023-04-16T13:52:01;15.70;88.40
55771;DHT22;41687;-33.234;-60.334;2023-04-16T13:54:28;15.70;88.70
55771;DHT22;41687;-33.234;-60.334;2023-04-16T13:56:56;15.70;88.20
55771;DHT22;41687;-33.234;-60.334;2023-04-16T13:59:23;15.70;88.60
55771;DHT22;41687;-33.234;-60.334;2023-04-16T14:01:52;15.60;89.00
55771;DHT22;41687;-33.234;-60.334;2023-04-16T14:04:19;15.60;88.60
55771;DHT22;41687;-33.234;-60.334;2023-04-16T14:06:48;15.60;88.30
55771;DHT22;41687;-33.234;-60.334;2023-04-16T14:09:16;15.60;88.70
55771;DHT22;41687;-33.234;-60.334;2023-04-16T14:11:44;15.70;89.30
55771;DHT22;41687;-33.234;-60.334;2023-04-16T14:14:11;15.60;90.10
55771;DHT22;41687;-33.234;-60.334;2023-04-16T14:16:39;15.60;90.20
55771;DHT22;41687;-33.234;-60.334;2023-04-16T14:19:07;15.60;90.30
55771;DHT22;41687;-33.234;-60.334;2023-04-16T14:21:35;15.60;90.30
55771;DHT22;41687;-33.234;-60.334;2023-04-16T14:24:02;15.60;90.50
55771;DHT22;41687;-33.234;-60.334;2023-04-16T14:26:30;15.70;90.30
55771;DHT22;41687;-33.234;-60.334;2023-04-16T14:28:58;15.70;90.40
55771;DHT22;41687;-33.234;-60.334;2023-04-16T14:31:25;15.80;90.50
55771;DHT22;41687;-33.234;-60.334;2023-04-16T14:33:53;15.80;90.30
55771;DHT22;41687;-33.234;-60.334;2023-04-16T14:36:22;15.90;90.00
55771;DHT22;41687;-33.234;-60.334;2023-04-16T14:38:49;16.00;90.50
55771;DHT22;41687;-33.234;-60.334;2023-04-16T14:41:16;16.10;90.40
55771;DHT22;41687;-33.234;-60.334;2023-04-16T14:43:44;16.10;89.70
55771;DHT22;41687;-33.234;-60.334;2023-04-16T14:46:12;16.20;89.50
55771;DHT22;41687;-33.234;-60.334;2023-04-16T14:48:43;16.30;89.60
55771;DHT22;41687;-33.234;-60.334;2023-04-16T14:51:11;16.30;89.10
55771;DHT22;41687;-33.234;-60.334;2023-04-16T14:53:39;16.30;89.00
55771;DHT22;41687;-33.234;-60.334;2023-04-16T14:56:07;16.40;88.90
55771;DHT22;41687;-33.234;-60.334;2023-04-16T14:58:34;16.50;88.10
55771;DHT22;41687;-33.234;-60.334;2023-04-16T15:01:02;16.50;87.70
55771;DHT22;41687;-33.234;-60.334;2023-04-16T15:03:30;16.50;87.90